Sanpo Maru No.5 — JL6343 — position and weather

sailwx.info

Track history (hours):
 
Tides and Currents Weather Stations Pressure Air Temp Water Temp Dewpoint Dewpoint Depression Visibility Wind Speed Wind Dir Waves Ship Positions

Sanpo Maru No.5

Last reported at 2016-Jun-26 13:25 UTC. Time now 2016-Jun-26 13:44 UTC.
Position N 35°38' E 140°52'.

Length 71 m; draft 3.5 m.

Type: Ship. MMSI: 431500283.

Date/timePositionNaut miles runAvg speedWind from/ knotsBaromVisibWave heightAir tempDewpointWater temp
2016-Jun-26 13:25N 35°38' E 140°52'910.0
2016-Jun-26 12:34N 35°46' E 140°56'1110.6
2016-Jun-26 11:34N 35°57' E 140°57'1110.9
2016-Jun-26 10:33N 36°07' E 140°58'  
2016-Jun-24 01:32N 35°16' E 140°32'2010.3
2016-Jun-23 23:33N 35°02' E 140°14'1110.4
2016-Jun-23 22:31N 34°56' E 140°03'1410.0
2016-Jun-23 21:08N 34°52' E 139°47'  
2016-Jun-21 14:04N 35°04' E 139°32'5 9.9
2016-Jun-21 13:32N 35°06' E 139°38'10 9.8
2016-Jun-21 12:33N 35°13' E 139°46'1111.0
2016-Jun-21 11:33N 35°23' E 139°42'1110.9
2016-Jun-21 10:33N 35°30' E 139°53'7 7.0
2016-Jun-21 09:32N 35°30' E 140°02'0 0.0
2016-Jun-21 08:33N 35°30' E 140°02'1 0.6
2016-Jun-21 07:33N 35°30' E 140°01'3 1.7
2016-Jun-21 05:33N 35°30' E 139°57'1010.1
2016-Jun-21 04:33N 35°24' E 139°47'1110.7
2016-Jun-21 03:33N 35°14' E 139°47'1411.4
2016-Jun-21 02:22N 35°00' E 139°44'910.6
2016-Jun-21 01:33N 34°52' E 139°48'1310.7
2016-Jun-21 00:19N 34°56' E 140°03'810.4
2016-Jun-20 23:33N 34°60' E 140°11'1010.3
2016-Jun-20 22:33N 35°05' E 140°22'10 9.7
2016-Jun-20 21:32N 35°13' E 140°29'1111.6
2016-Jun-20 20:33N 35°22' E 140°37'1211.5
2016-Jun-20 19:32N 35°31' E 140°47'1111.3
2016-Jun-20 18:33N 35°40' E 140°55'1211.1
2016-Jun-20 17:30N 35°52' E 140°56'1111.2
2016-Jun-20 16:32N 36°02' E 140°57'1111.6
2016-Jun-20 15:33N 36°14' E 140°58'1111.2
2016-Jun-20 14:33N 36°25' E 141°00'1111.0
2016-Jun-20 13:33N 36°36' E 141°03'1111.0
2016-Jun-20 12:33N 36°46' E 141°07'1110.4
2016-Jun-20 11:32N 36°57' E 141°10'97 2.8
2016-Jun-19 00:21N 35°23' E 140°38'911.0
2016-Jun-18 23:33N 35°16' E 140°31'1611.3
2016-Jun-18 22:05N 35°04' E 140°18'611.1
2016-Jun-18 21:32N 35°00' E 140°12'1110.9
2016-Jun-18 20:33N 34°55' E 140°00'1110.6
2016-Jun-18 19:31N 34°52' E 139°48'1010.6
2016-Jun-18 18:33N 34°51' E 139°35'1110.7
2016-Jun-18 17:33N 34°49' E 139°22'  
Track history (hours):
 
Tides and Currents Weather Stations Pressure Air Temp Water Temp Dewpoint Dewpoint Depression Visibility Wind Speed Wind Dir Waves Ship Positions

Sanpo Maru No.5

Last reported at 2016-Jun-26 13:25 UTC. Time now 2016-Jun-26 13:44 UTC.
Position N 35°38' E 140°52'.

Length 71 m; draft 3.5 m.

Type: Ship. MMSI: 431500283.

Date/timePositionNaut miles runAvg speedWind from/ knotsBaromVisibWave heightAir tempDewpointWater temp
2016-Jun-26 13:25N 35°38' E 140°52'910.0
2016-Jun-26 12:34N 35°46' E 140°56'1110.6
2016-Jun-26 11:34N 35°57' E 140°57'1110.9
2016-Jun-26 10:33N 36°07' E 140°58'  
2016-Jun-24 01:32N 35°16' E 140°32'2010.3
2016-Jun-23 23:33N 35°02' E 140°14'1110.4
2016-Jun-23 22:31N 34°56' E 140°03'1410.0
2016-Jun-23 21:08N 34°52' E 139°47'  
2016-Jun-21 14:04N 35°04' E 139°32'5 9.9
2016-Jun-21 13:32N 35°06' E 139°38'10 9.8
2016-Jun-21 12:33N 35°13' E 139°46'1111.0
2016-Jun-21 11:33N 35°23' E 139°42'1110.9
2016-Jun-21 10:33N 35°30' E 139°53'7 7.0
2016-Jun-21 09:32N 35°30' E 140°02'0 0.0
2016-Jun-21 08:33N 35°30' E 140°02'1 0.6
2016-Jun-21 07:33N 35°30' E 140°01'3 1.7
2016-Jun-21 05:33N 35°30' E 139°57'1010.1
2016-Jun-21 04:33N 35°24' E 139°47'1110.7
2016-Jun-21 03:33N 35°14' E 139°47'1411.4
2016-Jun-21 02:22N 35°00' E 139°44'910.6
2016-Jun-21 01:33N 34°52' E 139°48'1310.7
2016-Jun-21 00:19N 34°56' E 140°03'810.4
2016-Jun-20 23:33N 34°60' E 140°11'1010.3
2016-Jun-20 22:33N 35°05' E 140°22'10 9.7
2016-Jun-20 21:32N 35°13' E 140°29'1111.6
2016-Jun-20 20:33N 35°22' E 140°37'1211.5
2016-Jun-20 19:32N 35°31' E 140°47'1111.3
2016-Jun-20 18:33N 35°40' E 140°55'1211.1
2016-Jun-20 17:30N 35°52' E 140°56'1111.2
2016-Jun-20 16:32N 36°02' E 140°57'1111.6
2016-Jun-20 15:33N 36°14' E 140°58'1111.2
2016-Jun-20 14:33N 36°25' E 141°00'1111.0
2016-Jun-20 13:33N 36°36' E 141°03'1111.0
2016-Jun-20 12:33N 36°46' E 141°07'1110.4
2016-Jun-20 11:32N 36°57' E 141°10'97 2.8
2016-Jun-19 00:21N 35°23' E 140°38'911.0
2016-Jun-18 23:33N 35°16' E 140°31'1611.3
2016-Jun-18 22:05N 35°04' E 140°18'611.1
2016-Jun-18 21:32N 35°00' E 140°12'1110.9
2016-Jun-18 20:33N 34°55' E 140°00'1110.6
2016-Jun-18 19:31N 34°52' E 139°48'1010.6
2016-Jun-18 18:33N 34°51' E 139°35'1110.7
2016-Jun-18 17:33N 34°49' E 139°22'  

Dump ship's entire track history